createdAt,value
2019-03-02T00:00:05.983Z,72.11
2019-03-02T00:01:16.942Z,71.54
2019-03-02T00:02:27.919Z,70.88
2019-03-02T00:03:38.401Z,70.78
2019-03-02T00:04:51.759Z,70.31
2019-03-02T00:06:03.601Z,70.69
2019-03-02T00:07:14.577Z,70.21
2019-03-02T00:08:27.662Z,70.31
2019-03-02T00:09:37.827Z,70.31
2019-03-02T00:10:48.308Z,70.31
2019-03-02T00:11:59.770Z,70.69
2019-03-02T00:13:11.024Z,70.5
2019-03-02T00:14:21.782Z,69.93
2019-03-02T00:15:33.299Z,69.56
2019-03-02T00:16:45.846Z,69.37
2019-03-02T00:17:56.672Z,68.99
2019-03-02T00:19:09.339Z,69.65
2019-03-02T00:20:20.642Z,69.65
2019-03-02T00:21:33.906Z,69.27
2019-03-02T00:22:46.146Z,68.8
2019-03-02T00:23:56.940Z,68.9
2019-03-02T00:25:06.868Z,68.71
2019-03-02T00:26:16.788Z,69.09
2019-03-02T00:27:26.706Z,69.27
2019-03-02T00:28:38.033Z,68.8
2019-03-02T00:29:49.175Z,69.37
2019-03-02T00:31:00.381Z,70.12
2019-03-02T00:32:12.183Z,69.46
2019-03-02T00:33:23.455Z,69.09
2019-03-02T00:34:34.527Z,69.09
2019-03-02T00:35:46.216Z,68.9
2019-03-02T00:36:58.554Z,68.9
2019-03-02T00:38:11.367Z,69.37
2019-03-02T00:39:22.258Z,69.27
2019-03-02T00:40:33.891Z,69.27
2019-03-02T00:41:44.771Z,68.99
2019-03-02T00:42:55.260Z,69.74
2019-03-02T00:44:06.301Z,70.78
2019-03-02T00:45:17.746Z,70.69
2019-03-02T00:46:27.413Z,69.84
2019-03-02T00:47:38.645Z,69.56
2019-03-02T00:48:49.427Z,69.37
2019-03-02T00:50:03.163Z,69.18
2019-03-02T00:51:13.697Z,69.09
2019-03-02T00:52:26.045Z,69.18
2019-03-02T00:53:38.033Z,69.56
2019-03-02T00:54:58.061Z,69.84
2019-03-02T00:56:10.464Z,69.27
2019-03-02T00:57:21.266Z,68.8
2019-03-02T00:58:32.206Z,69.46
2019-03-02T00:59:42.755Z,68.9
2019-03-02T01:00:56.189Z,69.09
2019-03-02T01:02:06.997Z,69.18
2019-03-02T01:03:18.202Z,69.74
2019-03-02T01:04:29.184Z,69.84
2019-03-02T01:05:39.669Z,70.5
2019-03-02T01:06:51.287Z,70.59
2019-03-02T01:08:02.379Z,71.54
2019-03-02T01:09:14.198Z,71.83
2019-03-02T01:10:25.158Z,71.92
2019-03-02T01:11:36.515Z,71.92
2019-03-02T01:12:47.657Z,70.65
2019-03-02T01:13:59.305Z,70.56
2019-03-02T01:15:10.915Z,70.09
2019-03-02T01:16:22.506Z,69.81
2019-03-02T01:17:34.049Z,69.52
2019-03-02T01:18:44.916Z,69.24
2019-03-02T01:19:56.265Z,69.14
2019-03-02T01:21:07.395Z,69.81
2019-03-02T01:22:19.689Z,69.05
2019-03-02T01:23:31.130Z,69.05
2019-03-02T01:24:41.473Z,67.82
2019-03-02T01:25:52.181Z,69.33
2019-03-02T01:27:03.031Z,69.81
2019-03-02T01:28:13.150Z,70.12
2019-03-02T01:29:22.896Z,70.28
2019-03-02T01:30:33.395Z,70.78
2019-03-02T01:31:44.209Z,69.84
2019-03-02T01:32:55.321Z,69.93
2019-03-02T01:34:08.370Z,69.93
2019-03-02T01:35:19.995Z,70.88
2019-03-02T01:36:32.204Z,70.4
2019-03-02T01:37:46.188Z,70.69
2019-03-02T01:38:57.269Z,69.37
2019-03-02T01:40:08.702Z,68.99
2019-03-02T01:41:20.230Z,67.76
2019-03-02T01:42:32.209Z,66.72
2019-03-02T01:43:43.743Z,65.68
2019-03-02T01:44:54.163Z,65.97
2019-03-02T01:46:05.922Z,64.83
2019-03-02T01:47:19.182Z,64.73
2019-03-02T01:48:30.339Z,64.36
2019-03-02T01:49:40.254Z,63.89
2019-03-02T01:50:51.340Z,64.45
2019-03-02T01:52:01.276Z,64.54
2019-03-02T01:53:12.388Z,64.17
2019-03-02T01:54:23.844Z,64.26
2019-03-02T01:55:34.551Z,64.36
2019-03-02T01:56:45.100Z,64.36
2019-03-02T01:57:55.640Z,64.36
2019-03-02T01:59:06.516Z,64.26
2019-03-02T02:00:17.004Z,63.98
2019-03-02T02:01:28.225Z,64.45
2019-03-02T02:02:39.577Z,64.26
2019-03-02T02:03:50.443Z,63.51
2019-03-02T02:05:00.830Z,63.42
2019-03-02T02:06:11.228Z,63.42
2019-03-02T02:07:21.764Z,62.94
2019-03-02T02:08:32.315Z,63.04
2019-03-02T02:09:43.074Z,63.04
2019-03-02T02:10:52.999Z,62.28
2019-03-02T02:12:02.915Z,62.69
2019-03-02T02:13:12.828Z,62.09
2019-03-02T02:14:22.756Z,62.37
2019-03-02T02:15:32.852Z,62.75
2019-03-02T02:16:44.342Z,62.66
2019-03-02T02:17:55.494Z,62.47
2019-03-02T02:19:05.777Z,62.56
2019-03-02T02:20:17.189Z,62.09
2019-03-02T02:21:29.127Z,63.04
2019-03-02T02:22:40.432Z,62.66
2019-03-02T02:23:52.364Z,63.51
2019-03-02T02:25:04.067Z,62.75
2019-03-02T02:26:14.962Z,63.51
2019-03-02T02:27:25.813Z,64.92
2019-03-02T02:28:35.900Z,65.97
2019-03-02T02:29:46.744Z,68.14
2019-03-02T02:31:01.570Z,69.74
2019-03-02T02:32:19.051Z,70.59
2019-03-02T02:33:33.423Z,70.69
2019-03-02T02:34:50.317Z,71.83
2019-03-02T02:36:08.211Z,73.52
2019-03-02T02:37:25.771Z,74.57
2019-03-02T02:38:43.765Z,75.51
2019-03-02T02:40:01.754Z,75.66
2019-03-02T02:41:25.194Z,74.71
2019-03-02T02:42:38.949Z,70.28
2019-03-02T02:43:58.887Z,68.2
2019-03-02T02:45:17.114Z,67.82
2019-03-02T02:46:34.624Z,67.72
2019-03-02T02:47:54.250Z,67.63
2019-03-02T02:49:11.867Z,68.86
2019-03-02T02:50:31.505Z,67.91
2019-03-02T02:51:44.289Z,66.12
2019-03-02T02:53:05.828Z,65.36
2019-03-02T02:54:22.329Z,65.08
2019-03-02T02:55:35.961Z,64.64
2019-03-02T02:56:48.793Z,64.07
2019-03-02T02:58:04.191Z,64.54
2019-03-02T02:59:22.110Z,64.26
2019-03-02T03:00:32.059Z,64.26
2019-03-02T03:01:43.115Z,64.54
2019-03-02T03:02:53.103Z,64.92
2019-03-02T03:04:03.392Z,64.54
2019-03-02T03:05:17.782Z,66.35
2019-03-02T03:06:32.517Z,65.78
2019-03-02T03:07:51.655Z,65.74
2019-03-02T03:09:11.671Z,64.98
2019-03-02T03:10:27.696Z,64.32
2019-03-02T03:11:46.250Z,64.23
2019-03-02T03:13:01.810Z,64.23
2019-03-02T03:14:14.901Z,63.76
2019-03-02T03:15:35.928Z,63.76
2019-03-02T03:16:49.340Z,63.57
2019-03-02T03:18:06.881Z,63.04
2019-03-02T03:19:20.686Z,63.42
2019-03-02T03:20:38.051Z,63.51
2019-03-02T03:21:55.820Z,63.51
2019-03-02T03:23:14.499Z,63.04
2019-03-02T03:24:30.408Z,63.32
2019-03-02T03:25:55.870Z,63.04
2019-03-02T03:27:08.818Z,63.32
2019-03-02T03:28:22.903Z,63.42
2019-03-02T03:29:38.309Z,63.32
2019-03-02T03:30:54.945Z,63.42
2019-03-02T03:32:14.003Z,63.32
2019-03-02T03:33:24.173Z,63.6
2019-03-02T03:34:50.344Z,63.51
2019-03-02T03:36:00.319Z,63.19
2019-03-02T03:37:12.994Z,63.38
2019-03-02T03:38:29.213Z,63.48
2019-03-02T03:39:41.711Z,63.19
2019-03-02T03:40:54.166Z,63.29
2019-03-02T03:42:10.709Z,63.57
2019-03-02T03:43:30.273Z,64.42
2019-03-02T03:44:49.762Z,64.42
2019-03-02T03:46:02.757Z,65.27
2019-03-02T03:47:12.681Z,65.08
2019-03-02T03:48:22.621Z,64.04
2019-03-02T03:49:36.821Z,64.32
2019-03-02T03:50:52.281Z,64.14
2019-03-02T03:52:11.010Z,64.14
2019-03-02T03:53:26.358Z,63.76
2019-03-02T03:54:45.366Z,63.57
2019-03-02T03:56:03.181Z,64.04
2019-03-02T03:57:16.992Z,64.51
2019-03-02T03:58:29.442Z,64.14
2019-03-02T03:59:45.195Z,64.42
2019-03-02T04:01:03.451Z,64.42
2019-03-02T04:02:22.490Z,64.23
2019-03-02T04:03:40.026Z,64.51
2019-03-02T04:05:06.806Z,64.98
2019-03-02T04:06:18.025Z,64.23
2019-03-02T04:07:34.515Z,64.42
2019-03-02T04:08:51.918Z,64.61
2019-03-02T04:10:06.299Z,64.51
2019-03-02T04:11:16.233Z,65.08
2019-03-02T04:12:26.979Z,64.7
2019-03-02T04:13:46.860Z,65.27
2019-03-02T04:15:03.367Z,65.17
2019-03-02T04:16:16.088Z,65.17
2019-03-02T04:17:34.002Z,65.93
2019-03-02T04:18:50.029Z,65.84
2019-03-02T04:20:14.559Z,65.55
2019-03-02T04:21:29.929Z,66.31
2019-03-02T04:22:44.585Z,65.93
2019-03-02T04:24:03.340Z,66.12
2019-03-02T04:25:19.963Z,65.65
2019-03-02T04:26:38.660Z,65.74
2019-03-02T04:27:56.324Z,65.27
2019-03-02T04:29:11.846Z,64.7
2019-03-02T04:30:33.107Z,65.08
2019-03-02T04:31:50.614Z,64.98
2019-03-02T04:33:07.775Z,65.17
2019-03-02T04:34:23.196Z,65.08
2019-03-02T04:35:36.438Z,65.36
2019-03-02T04:36:50.011Z,65.08
2019-03-02T04:38:03.261Z,64.89
2019-03-02T04:39:16.294Z,64.51
2019-03-02T04:40:31.205Z,64.89
2019-03-02T04:41:42.081Z,64.98
2019-03-02T04:42:52.817Z,64.98
2019-03-02T04:44:02.732Z,64.7
2019-03-02T04:45:12.646Z,64.98
2019-03-02T04:46:22.714Z,65.65
2019-03-02T04:47:32.625Z,66.69
2019-03-02T04:48:42.296Z,66.78
2019-03-02T04:49:53.897Z,66.97
2019-03-02T04:51:05.098Z,66.59
2019-03-02T04:52:16.996Z,67.44
2019-03-02T04:53:27.522Z,68.2
2019-03-02T04:54:40.146Z,69.33
2019-03-02T04:55:51.146Z,70.37
2019-03-02T04:57:02.206Z,70
2019-03-02T04:58:14.510Z,68.86
2019-03-02T04:59:25.442Z,69.43
2019-03-02T05:00:35.534Z,68.95
2019-03-02T05:01:48.526Z,69.33
2019-03-02T05:02:58.583Z,69.24
2019-03-02T05:04:08.644Z,70.47
2019-03-02T05:05:18.565Z,70.81
2019-03-02T05:06:28.228Z,70.53
2019-03-02T05:07:38.156Z,70.53
2019-03-02T05:08:48.079Z,70.24
2019-03-02T05:09:58.098Z,70.53
2019-03-02T05:11:08.034Z,71.56
2019-03-02T05:12:17.994Z,71.94
2019-03-02T05:13:30.903Z,72.69
2019-03-02T05:14:42.661Z,73.07
2019-03-02T05:15:54.809Z,72.51
2019-03-02T05:17:07.219Z,72.79
2019-03-02T05:18:20.578Z,72.69
2019-03-02T05:19:32.230Z,73.07
2019-03-02T05:20:44.510Z,72.69
2019-03-02T05:21:54.321Z,71
2019-03-02T05:23:04.238Z,69.86
2019-03-02T05:24:14.154Z,69.58
2019-03-02T05:25:24.080Z,69.39
2019-03-02T05:26:34.045Z,69.2
2019-03-02T05:27:43.986Z,69.67
2019-03-02T05:28:53.903Z,69.3
2019-03-02T05:30:03.819Z,70.05
2019-03-02T05:31:13.937Z,69.96
2019-03-02T05:32:23.954Z,69.86
2019-03-02T05:33:33.870Z,69.86
2019-03-02T05:34:43.551Z,69.86
2019-03-02T05:35:54.165Z,70.9
2019-03-02T05:37:05.500Z,70.53
2019-03-02T05:38:17.746Z,70.62
2019-03-02T05:39:27.666Z,70.62
2019-03-02T05:40:37.578Z,70.34
2019-03-02T05:41:47.490Z,70.05
2019-03-02T05:42:58.460Z,70.43
2019-03-02T05:44:08.540Z,70.43
2019-03-02T05:45:20.332Z,70.05
2019-03-02T05:46:31.509Z,70.05
2019-03-02T05:47:41.438Z,69.96
2019-03-02T05:48:51.357Z,69.96
2019-03-02T05:50:01.321Z,69.86
2019-03-02T05:51:11.237Z,70.43
2019-03-02T05:52:21.259Z,70.43
2019-03-02T05:53:32.737Z,70.24
2019-03-02T05:54:44.007Z,69.2
2019-03-02T05:55:56.329Z,69.49
2019-03-02T05:57:07.617Z,69.2
2019-03-02T05:58:19.273Z,68.82
2019-03-02T05:59:30.274Z,68.82
2019-03-02T06:00:41.378Z,67.88
2019-03-02T06:01:51.341Z,68.44
2019-03-02T06:03:01.295Z,68.16
2019-03-02T06:04:11.210Z,68.29
2019-03-02T06:05:24.966Z,68.29
2019-03-02T06:06:34.879Z,68.48
2019-03-02T06:07:44.951Z,68.39
2019-03-02T06:08:56.772Z,68.01
2019-03-02T06:10:06.690Z,67.44
2019-03-02T06:11:18.970Z,67.63
2019-03-02T06:12:28.632Z,67.54
2019-03-02T06:13:38.657Z,67.91
2019-03-02T06:14:48.576Z,68.01
2019-03-02T06:15:58.496Z,67.72
2019-03-02T06:17:08.410Z,68.29
2019-03-02T06:18:18.329Z,68.29
2019-03-02T06:19:28.304Z,68.48
2019-03-02T06:20:39.173Z,68.29
2019-03-02T06:21:49.914Z,68.95
2019-03-02T06:22:59.828Z,69.14
2019-03-02T06:24:09.744Z,68.92
2019-03-02T06:25:23.831Z,68.92
2019-03-02T06:26:35.341Z,69.11
2019-03-02T06:27:49.580Z,68.95
2019-03-02T06:29:00.346Z,68.73
2019-03-02T06:30:10.889Z,68.48
2019-03-02T06:31:21.695Z,68.48
2019-03-02T06:32:33.569Z,68.35
2019-03-02T06:33:46.684Z,68.35
2019-03-02T06:34:58.413Z,69.67
2019-03-02T06:36:11.459Z,69.86
2019-03-02T06:37:22.540Z,69.05
2019-03-02T06:38:34.597Z,69.33
2019-03-02T06:39:46.924Z,70.34
2019-03-02T06:41:00.666Z,70.24
2019-03-02T06:42:12.357Z,70.34
2019-03-02T06:43:24.380Z,70.43
2019-03-02T06:44:36.604Z,70.62
2019-03-02T06:45:46.805Z,70.9
2019-03-02T06:46:58.222Z,71.66
2019-03-02T06:48:12.099Z,71.56
2019-03-02T06:49:23.533Z,70.43
2019-03-02T06:50:35.602Z,70.15
2019-03-02T06:51:47.212Z,70.05
2019-03-02T06:53:01.376Z,70.24
2019-03-02T06:54:15.231Z,70.43
2019-03-02T06:55:27.930Z,70.72
2019-03-02T06:56:39.771Z,70.34
2019-03-02T06:57:52.657Z,70.72
2019-03-02T06:59:04.100Z,70.05
2019-03-02T07:00:16.472Z,69.39
2019-03-02T07:01:27.476Z,70.24
2019-03-02T07:02:38.208Z,69.96
2019-03-02T07:03:49.118Z,69.77
2019-03-02T07:05:00.501Z,70.43
2019-03-02T07:06:14.993Z,70
2019-03-02T07:07:25.254Z,70.05
2019-03-02T07:08:37.115Z,70.15
2019-03-02T07:09:47.726Z,70.53
2019-03-02T07:11:00.409Z,70.62
2019-03-02T07:12:11.925Z,70.75
2019-03-02T07:13:23.805Z,71.22
2019-03-02T07:14:34.802Z,70.65
2019-03-02T07:15:47.173Z,70.56
2019-03-02T07:16:58.446Z,69.33
2019-03-02T07:18:10.340Z,69.71
2019-03-02T07:19:20.255Z,69.43
2019-03-02T07:20:30.661Z,68.76
2019-03-02T07:21:44.815Z,68.39
2019-03-02T07:22:55.668Z,69.33
2019-03-02T07:24:05.582Z,69.24
2019-03-02T07:25:17.130Z,68.95
2019-03-02T07:26:26.810Z,69.33
2019-03-02T07:27:36.721Z,69.14
2019-03-02T07:28:46.731Z,68.95
2019-03-02T07:29:57.523Z,69.14
2019-03-02T07:31:07.439Z,69.14
2019-03-02T07:32:17.959Z,68.95
2019-03-02T07:33:27.876Z,69.62
2019-03-02T07:34:40.656Z,69.9
2019-03-02T07:35:55.359Z,69.71
2019-03-02T07:37:09.076Z,69.43
2019-03-02T07:38:22.591Z,69.9
2019-03-02T07:39:36.464Z,69.24
2019-03-02T07:40:48.020Z,69.43
2019-03-02T07:42:00.452Z,69.81
2019-03-02T07:43:12.275Z,69.52
2019-03-02T07:44:24.775Z,69.43
2019-03-02T07:45:37.489Z,69.71
2019-03-02T07:46:50.528Z,69.33
2019-03-02T07:48:02.906Z,69.24
2019-03-02T07:49:15.288Z,69.62
2019-03-02T07:50:29.689Z,69.52
2019-03-02T07:51:41.417Z,69.62
2019-03-02T07:52:52.903Z,69.81
2019-03-02T07:54:05.910Z,68.99
2019-03-02T07:55:18.701Z,69.18
2019-03-02T07:56:32.454Z,68.9
2019-03-02T07:57:43.654Z,68.9
2019-03-02T07:58:54.858Z,69.18
2019-03-02T08:00:08.139Z,69.18
2019-03-02T08:01:19.161Z,68.33
2019-03-02T08:02:32.140Z,67.76
2019-03-02T08:03:42.062Z,66.72
2019-03-02T08:04:51.978Z,66.82
2019-03-02T08:06:03.781Z,65.97
2019-03-02T08:07:13.733Z,66.06
2019-03-02T08:08:23.761Z,65.78
2019-03-02T08:09:33.680Z,66.06
2019-03-02T08:10:43.597Z,66.47
2019-03-02T08:11:53.513Z,66.38
2019-03-02T08:13:05.564Z,66.75
2019-03-02T08:14:16.175Z,67.79
2019-03-02T08:15:28.040Z,67.03
2019-03-02T08:16:40.238Z,66.09
2019-03-02T08:17:51.705Z,66.38
2019-03-02T08:19:03.872Z,66.56
2019-03-02T08:20:13.944Z,66.85
2019-03-02T08:21:27.676Z,66.75
2019-03-02T08:22:42.672Z,66.56
2019-03-02T08:23:53.912Z,66.28
2019-03-02T08:25:03.837Z,65.34
2019-03-02T08:26:13.769Z,65.43
2019-03-02T08:27:25.412Z,64.67
2019-03-02T08:28:42.034Z,64.77
2019-03-02T08:29:57.275Z,65.72
2019-03-02T08:31:11.003Z,66.38
2019-03-02T08:32:23.665Z,66.94
2019-03-02T08:33:45.405Z,66.75
2019-03-02T08:34:55.590Z,67.32
2019-03-02T08:36:05.539Z,66.94
2019-03-02T08:37:19.856Z,66.47
2019-03-02T08:38:32.742Z,66.28
2019-03-02T08:39:46.526Z,65.91
2019-03-02T08:41:00.201Z,65.72
2019-03-02T08:42:12.089Z,65.56
2019-03-02T08:43:22.274Z,65.43
2019-03-02T08:44:32.193Z,65.91
2019-03-02T08:45:42.653Z,66.13
2019-03-02T08:46:52.572Z,66.47
2019-03-02T08:48:02.486Z,66.28
2019-03-02T08:49:12.485Z,66.28
2019-03-02T08:50:22.420Z,66.88
2019-03-02T08:51:32.361Z,67.17
2019-03-02T08:52:42.277Z,66.41
2019-03-02T08:53:52.297Z,66.22
2019-03-02T08:55:02.218Z,66.03
2019-03-02T08:56:14.348Z,66.6
2019-03-02T08:57:25.658Z,66.41
2019-03-02T08:58:35.579Z,66.5
2019-03-02T08:59:45.369Z,65.56
2019-03-02T09:00:55.287Z,66.03
2019-03-02T09:02:05.207Z,66.22
2019-03-02T09:03:15.126Z,66.03
2019-03-02T09:04:25.074Z,66.31
2019-03-02T09:05:51.632Z,66.5
2019-03-02T09:07:02.941Z,66.41
2019-03-02T09:08:16.730Z,66.5
2019-03-02T09:09:26.407Z,67.36
2019-03-02T09:10:37.104Z,66.13
2019-03-02T09:11:48.756Z,66.22
2019-03-02T09:13:01.984Z,66.41
2019-03-02T09:14:14.768Z,66.5
2019-03-02T09:15:30.017Z,65.94
2019-03-02T09:16:41.653Z,65.47
2019-03-02T09:17:57.795Z,65.18
2019-03-02T09:19:08.003Z,64.71
2019-03-02T09:20:19.744Z,64.99
2019-03-02T09:21:29.688Z,64.64
2019-03-02T09:22:39.609Z,63.89
2019-03-02T09:23:51.538Z,64.55
2019-03-02T09:25:01.716Z,64.93
2019-03-02T09:26:11.646Z,65.31
2019-03-02T09:27:22.669Z,64.36
2019-03-02T09:28:32.805Z,63.42
2019-03-02T09:29:42.727Z,62.37
2019-03-02T09:30:54.299Z,62.47
2019-03-02T09:32:10.872Z,62.47
2019-03-02T09:33:24.663Z,62.09
2019-03-02T09:34:40.381Z,62.56
2019-03-02T09:35:57.398Z,63.23
2019-03-02T09:37:09.556Z,63.13
2019-03-02T09:38:23.297Z,63.13
2019-03-02T09:39:37.183Z,62.94
2019-03-02T09:40:49.076Z,63.51
2019-03-02T09:42:01.436Z,63.6
2019-03-02T09:43:12.800Z,63.89
2019-03-02T09:44:23.919Z,64.55
2019-03-02T09:45:35.656Z,64.17
2019-03-02T09:46:47.708Z,64.26
2019-03-02T09:47:57.694Z,64.36
2019-03-02T09:49:09.771Z,64.26
2019-03-02T09:50:21.561Z,64.26
2019-03-02T09:51:31.696Z,63.51
2019-03-02T09:52:43.133Z,64.36
2019-03-02T09:53:53.340Z,64.45
2019-03-02T09:55:03.266Z,65.12
2019-03-02T09:56:13.231Z,65.02
2019-03-02T09:57:23.670Z,65.69
2019-03-02T09:58:35.073Z,66.44
2019-03-02T09:59:47.991Z,65.59
2019-03-02T10:01:04.437Z,65.31
2019-03-02T10:02:16.949Z,64.07
2019-03-02T10:03:29.981Z,64.45
2019-03-02T10:04:41.881Z,64.45
2019-03-02T10:05:52.490Z,64.45
2019-03-02T10:07:04.553Z,65.21
2019-03-02T10:08:15.884Z,65.06
2019-03-02T10:09:27.443Z,64.58
2019-03-02T10:10:39.032Z,64.77
2019-03-02T10:11:48.981Z,64.2
2019-03-02T10:12:59.008Z,64.49
2019-03-02T10:14:11.031Z,64.39
2019-03-02T10:15:27.071Z,64.68
2019-03-02T10:16:36.775Z,64.58
2019-03-02T10:17:46.697Z,64.77
2019-03-02T10:18:56.441Z,65.91
2019-03-02T10:20:07.654Z,66.57
2019-03-02T10:21:17.575Z,66.09
2019-03-02T10:22:27.491Z,66.67
2019-03-02T10:23:41.944Z,65.53
2019-03-02T10:24:55.543Z,65.44
2019-03-02T10:26:07.214Z,64.58
2019-03-02T10:27:21.039Z,65.44
2019-03-02T10:28:33.977Z,65.15
2019-03-02T10:29:48.106Z,65.37
2019-03-02T10:30:58.389Z,65
2019-03-02T10:32:11.410Z,64.96
2019-03-02T10:33:22.457Z,65.19
2019-03-02T10:34:38.402Z,64.81
2019-03-02T10:35:53.165Z,64.9
2019-03-02T10:37:07.138Z,64.71
2019-03-02T10:38:21.121Z,64.81
2019-03-02T10:39:32.675Z,64.52
2019-03-02T10:40:44.988Z,63.95
2019-03-02T10:41:56.687Z,63.76
2019-03-02T10:43:10.626Z,62.72
2019-03-02T10:44:23.775Z,63.39
2019-03-02T10:45:33.821Z,63.48
2019-03-02T10:46:43.756Z,63.76
2019-03-02T10:47:54.145Z,62.82
2019-03-02T10:49:06.798Z,63.67
2019-03-02T10:50:19.505Z,63.95
2019-03-02T10:51:33.874Z,63.2
2019-03-02T10:52:48.842Z,62.34
2019-03-02T10:54:02.015Z,62.53
2019-03-02T10:55:14.769Z,62.62
2019-03-02T10:56:28.185Z,62.82
2019-03-02T10:57:39.470Z,62.53
2019-03-02T10:58:49.389Z,63.39
2019-03-02T10:59:59.317Z,63.67
2019-03-02T11:01:09.801Z,63.79
2019-03-02T11:02:23.319Z,63.76
2019-03-02T11:03:34.301Z,63.6
2019-03-02T11:04:47.106Z,63.23
2019-03-02T11:05:59.522Z,63.42
2019-03-02T11:07:12.904Z,63.42
2019-03-02T11:08:25.321Z,63.98
2019-03-02T11:09:39.636Z,63.98
2019-03-02T11:10:52.157Z,64.27
2019-03-02T11:12:06.738Z,63.13
2019-03-02T11:13:19.193Z,62.75
2019-03-02T11:14:30.981Z,62.37
2019-03-02T11:15:46.045Z,62.28
2019-03-02T11:16:57.622Z,62.37
2019-03-02T11:18:09.184Z,62.28
2019-03-02T11:19:19.106Z,62.56
2019-03-02T11:20:29.039Z,62.47
2019-03-02T11:21:38.964Z,61.8
2019-03-02T11:22:48.883Z,61.52
2019-03-02T11:23:59.996Z,61.43
2019-03-02T11:25:09.933Z,60.38
2019-03-02T11:26:19.951Z,60.22
2019-03-02T11:27:29.878Z,60.6
2019-03-02T11:28:39.805Z,59.59
2019-03-02T11:29:53.447Z,58.95
2019-03-02T11:31:03.372Z,56.96
2019-03-02T11:32:16.800Z,56.2
2019-03-02T11:33:30.851Z,55.91
2019-03-02T11:34:41.117Z,55.35
2019-03-02T11:35:51.041Z,56.08
2019-03-02T11:37:00.968Z,56.46
2019-03-02T11:38:10.892Z,56.74
2019-03-02T11:39:20.833Z,57.5
2019-03-02T11:40:33.118Z,56.74
2019-03-02T11:41:43.131Z,56.84
2019-03-02T11:42:53.059Z,56.93
2019-03-02T11:44:04.813Z,57.5
2019-03-02T11:45:14.736Z,57.57
2019-03-02T11:46:24.408Z,57.38
2019-03-02T11:47:36.538Z,58.7
2019-03-02T11:48:56.821Z,57.98
2019-03-02T11:50:07.138Z,58.73
2019-03-02T11:51:19.713Z,57.98
2019-03-02T11:52:34.929Z,56.08
2019-03-02T11:53:48.644Z,56.34
2019-03-02T11:55:04.237Z,57.19
2019-03-02T11:56:23.781Z,56.24
2019-03-02T11:57:35.071Z,56.36
2019-03-02T11:58:44.999Z,56.74
2019-03-02T11:59:54.920Z,57.31
2019-03-02T12:01:05.809Z,57.59
2019-03-02T12:02:19.889Z,57.69
2019-03-02T12:03:35.185Z,57.4
2019-03-02T12:04:48.948Z,57.69
2019-03-02T12:06:07.919Z,58.17
2019-03-02T12:07:17.608Z,57.59
2019-03-02T12:08:27.294Z,57.21
2019-03-02T12:09:37.211Z,56.65
2019-03-02T12:10:47.149Z,57.31
2019-03-02T12:11:56.926Z,55.98
2019-03-02T12:13:06.853Z,56.36
2019-03-02T12:14:16.782Z,56.65
2019-03-02T12:15:27.491Z,56.93
2019-03-02T12:16:38.217Z,56.52
2019-03-02T12:17:48.272Z,56.99
2019-03-02T12:19:00.531Z,55.29
2019-03-02T12:20:14.250Z,55.86
2019-03-02T12:21:24.585Z,56.05
2019-03-02T12:22:37.799Z,55.19
2019-03-02T12:23:47.826Z,54.34
2019-03-02T12:25:00.919Z,55
2019-03-02T12:26:13.494Z,54.82
2019-03-02T12:27:24.827Z,54.53
2019-03-02T12:28:36.193Z,55.48
2019-03-02T12:29:49.588Z,55.57
2019-03-02T12:30:59.706Z,55.19
2019-03-02T12:32:11.150Z,54.91
2019-03-02T12:33:23.191Z,55.96
2019-03-02T12:34:36.823Z,55.67
2019-03-02T12:35:46.847Z,55.1
2019-03-02T12:36:56.992Z,55.67
2019-03-02T12:38:11.427Z,55.96
2019-03-02T12:39:26.529Z,55
2019-03-02T12:40:40.022Z,55.19
2019-03-02T12:41:52.538Z,55.45
2019-03-02T12:43:07.431Z,55.86
2019-03-02T12:44:21.230Z,55.96
2019-03-02T12:45:33.572Z,56.52
2019-03-02T12:46:43.838Z,56.87
2019-03-02T12:48:02.631Z,56.87
2019-03-02T12:49:13.593Z,57.19
2019-03-02T12:50:25.665Z,57.25
2019-03-02T12:51:39.283Z,57.44
2019-03-02T12:52:51.663Z,58.61
2019-03-02T12:54:06.771Z,57.47
2019-03-02T12:55:20.464Z,57.47
2019-03-02T12:56:32.811Z,57.28
2019-03-02T12:57:47.970Z,58.33
2019-03-02T12:59:04.020Z,57.95
2019-03-02T13:00:13.950Z,57.57
2019-03-02T13:01:23.620Z,58.51
2019-03-02T13:02:36.868Z,58.8
2019-03-02T13:03:54.203Z,59.75
2019-03-02T13:05:04.151Z,59.75
2019-03-02T13:06:14.077Z,60.03
2019-03-02T13:07:24.001Z,58.99
2019-03-02T13:08:34.854Z,58.7
2019-03-02T13:09:44.969Z,59.21
2019-03-02T13:10:56.054Z,58.83
2019-03-02T13:12:08.199Z,58.07
2019-03-02T13:13:23.260Z,56.84
2019-03-02T13:14:34.924Z,56.36
2019-03-02T13:15:48.471Z,56.29
2019-03-02T13:17:03.595Z,55.06
2019-03-02T13:18:16.635Z,54.8
2019-03-02T13:19:29.283Z,54.61
2019-03-02T13:20:42.053Z,55.66
2019-03-02T13:21:54.209Z,54.05
2019-03-02T13:23:06.477Z,54.9
2019-03-02T13:24:22.599Z,53.97
2019-03-02T13:25:36.662Z,53.69
2019-03-02T13:26:48.760Z,53.5
2019-03-02T13:28:05.087Z,54.45
2019-03-02T13:29:16.371Z,54.17
2019-03-02T13:30:29.445Z,53.69
2019-03-02T13:31:43.698Z,53.31
2019-03-02T13:32:55.929Z,51.6
2019-03-02T13:34:08.006Z,51.98
2019-03-02T13:35:23.362Z,53.5
2019-03-02T13:36:33.693Z,53.22
2019-03-02T13:37:46.939Z,53.28
2019-03-02T13:39:02.268Z,53.19
2019-03-02T13:40:22.213Z,53.57
2019-03-02T13:41:36.446Z,53.85
2019-03-02T13:42:53.540Z,52.62
2019-03-02T13:44:09.779Z,53.09
2019-03-02T13:45:21.689Z,53.28
2019-03-02T13:46:34.719Z,54.05
2019-03-02T13:47:48.644Z,53.66
2019-03-02T13:49:01.683Z,54.11
2019-03-02T13:50:13.879Z,56.2
2019-03-02T13:51:29.954Z,57.34
2019-03-02T13:52:46.062Z,58.2
2019-03-02T13:54:02.971Z,58.95
2019-03-02T13:55:16.060Z,59.05
2019-03-02T13:56:30.095Z,58.1
2019-03-02T13:57:43.907Z,55.54
2019-03-02T13:58:57.401Z,55.41
2019-03-02T14:00:10.390Z,56.93
2019-03-02T14:01:25.213Z,57.4
2019-03-02T14:02:40.356Z,56.93
2019-03-02T14:03:53.690Z,57.34
2019-03-02T14:05:09.297Z,56.1
2019-03-02T14:06:21.956Z,55.73
2019-03-02T14:07:33.755Z,55.22
2019-03-02T14:08:46.026Z,54.68
2019-03-02T14:09:55.942Z,55.89
2019-03-02T14:11:05.874Z,58.17
2019-03-02T14:12:19.854Z,60.25
2019-03-02T14:13:33.058Z,60.89
2019-03-02T14:14:44.805Z,61.55
2019-03-02T14:15:59.397Z,62.5
2019-03-02T14:17:11.769Z,62.69
2019-03-02T14:18:24.243Z,63.26
2019-03-02T14:19:37.950Z,63.73
2019-03-02T14:20:53.601Z,63.7
2019-03-02T14:22:06.642Z,63.98
2019-03-02T14:23:20.251Z,63.89
2019-03-02T14:24:43.151Z,64.55
2019-03-02T14:26:00.063Z,64.93
2019-03-02T14:27:10.359Z,63.79
2019-03-02T14:28:20.043Z,63.51
2019-03-02T14:29:33.539Z,61.27
2019-03-02T14:30:45.831Z,60.47
2019-03-02T14:32:00.120Z,59.34
2019-03-02T14:33:13.042Z,58.29
2019-03-02T14:34:22.965Z,57.92
2019-03-02T14:35:32.739Z,57.92
2019-03-02T14:36:44.869Z,58.2
2019-03-02T14:37:54.792Z,57.44
2019-03-02T14:39:05.217Z,58.01
2019-03-02T14:40:17.108Z,57.92
2019-03-02T14:41:31.305Z,57.92
2019-03-02T14:42:43.366Z,57.54
2019-03-02T14:43:57.056Z,57.25
2019-03-02T14:45:09.637Z,57.25
2019-03-02T14:46:23.236Z,57.35
2019-03-02T14:47:36.475Z,58.39
2019-03-02T14:48:49.205Z,59.53
2019-03-02T14:50:01.797Z,60.47
2019-03-02T14:51:16.913Z,61.33
2019-03-02T14:52:33.176Z,61.43
2019-03-02T14:53:45.098Z,61.9
2019-03-02T14:54:56.854Z,62.08
2019-03-02T14:56:09.977Z,60.1
2019-03-02T14:57:24.621Z,61.43
2019-03-02T14:58:37.622Z,64.65
2019-03-02T14:59:50.138Z,64.46
2019-03-02T15:01:02.648Z,65.03
2019-03-02T15:02:16.525Z,66.45
2019-03-02T15:03:29.267Z,67.87
2019-03-02T15:04:45.372Z,68.12
2019-03-02T15:05:56.868Z,69.17
2019-03-02T15:07:22.150Z,69.17
2019-03-02T15:08:37.250Z,69.17
2019-03-02T15:09:49.556Z,68.69
2019-03-02T15:11:03.463Z,67.65
2019-03-02T15:12:16.023Z,68.5
2019-03-02T15:13:29.335Z,69.07
2019-03-02T15:14:42.439Z,69.07
2019-03-02T15:15:54.423Z,69.17
2019-03-02T15:17:09.013Z,69.17
2019-03-02T15:18:22.537Z,69.17
2019-03-02T15:19:39.501Z,69.64
2019-03-02T15:21:04.084Z,69.26
2019-03-02T15:22:20.333Z,69.17
2019-03-02T15:23:35.117Z,69.17
2019-03-02T15:24:52.936Z,68.98
2019-03-02T15:26:06.273Z,68.4
2019-03-02T15:27:20.115Z,68.31
2019-03-02T15:28:33.869Z,67.27
2019-03-02T15:29:50.255Z,67.46
2019-03-02T15:31:02.667Z,67.83
2019-03-02T15:32:15.932Z,68.4
2019-03-02T15:33:30.257Z,68.5
2019-03-02T15:34:53.993Z,67.65
2019-03-02T15:36:07.090Z,66.41
2019-03-02T15:37:21.010Z,67.18